sensor_id;sensor_type;location;lat;lon;timestamp;pressure;altitude;pressure_sealevel;temperature;humidity
19783;BME280;10051;40.294;-3.754;2024-02-26T00:01:26;93107.84;;;11.28;100.00
19783;BME280;10051;40.294;-3.754;2024-02-26T00:03:52;93084.00;;;11.16;100.00
19783;BME280;10051;40.294;-3.754;2024-02-26T00:06:18;93120.09;;;11.42;100.00
19783;BME280;10051;40.294;-3.754;2024-02-26T00:08:45;93082.00;;;11.22;100.00
19783;BME280;10051;40.294;-3.754;2024-02-26T00:11:10;93126.59;;;11.44;100.00
19783;BME280;10051;40.294;-3.754;2024-02-26T00:13:36;93114.22;;;11.45;100.00
19783;BME280;10051;40.294;-3.754;2024-02-26T00:16:03;93109.25;;;11.43;100.00
19783;BME280;10051;40.294;-3.754;2024-02-26T00:18:28;93111.91;;;11.43;100.00
19783;BME280;10051;40.294;-3.754;2024-02-26T00:20:54;93073.63;;;11.20;100.00
19783;BME280;10051;40.294;-3.754;2024-02-26T00:23:19;93015.25;;;10.74;100.00
19783;BME280;10051;40.294;-3.754;2024-02-26T00:25:45;93052.41;;;10.98;100.00
19783;BME280;10051;40.294;-3.754;2024-02-26T00:28:11;93073.16;;;11.09;100.00
19783;BME280;10051;40.294;-3.754;2024-02-26T00:30:38;93100.41;;;11.30;100.00
19783;BME280;10051;40.294;-3.754;2024-02-26T00:33:04;93072.53;;;11.12;100.00
19783;BME280;10051;40.294;-3.754;2024-02-26T00:35:30;93095.16;;;11.30;100.00
19783;BME280;10051;40.294;-3.754;2024-02-26T00:37:55;93038.66;;;11.01;100.00
19783;BME280;10051;40.294;-3.754;2024-02-26T00:40:21;93095.47;;;11.38;100.00
19783;BME280;10051;40.294;-3.754;2024-02-26T00:42:46;93044.69;;;11.11;100.00
19783;BME280;10051;40.294;-3.754;2024-02-26T00:45:13;93054.59;;;11.14;100.00
19783;BME280;10051;40.294;-3.754;2024-02-26T00:47:39;93100.59;;;11.43;100.00
19783;BME280;10051;40.294;-3.754;2024-02-26T00:50:07;93048.41;;;11.10;100.00
19783;BME280;10051;40.294;-3.754;2024-02-26T00:52:34;93095.47;;;11.38;100.00
19783;BME280;10051;40.294;-3.754;2024-02-26T00:54:59;93085.09;;;11.33;100.00
19783;BME280;10051;40.294;-3.754;2024-02-26T00:57:25;93089.13;;;11.39;100.00
19783;BME280;10051;40.294;-3.754;2024-02-26T00:59:50;93108.31;;;11.48;100.00
19783;BME280;10051;40.294;-3.754;2024-02-26T01:02:16;93075.19;;;11.29;100.00
19783;BME280;10051;40.294;-3.754;2024-02-26T01:04:42;93046.06;;;11.08;100.00
19783;BME280;10051;40.294;-3.754;2024-02-26T01:07:08;93089.59;;;11.41;100.00
19783;BME280;10051;40.294;-3.754;2024-02-26T01:09:34;93067.91;;;11.26;100.00
19783;BME280;10051;40.294;-3.754;2024-02-26T01:11:59;93093.13;;;11.54;100.00
19783;BME280;10051;40.294;-3.754;2024-02-26T01:14:25;93094.56;;;11.51;100.00
19783;BME280;10051;40.294;-3.754;2024-02-26T01:16:51;93017.75;;;10.96;100.00
19783;BME280;10051;40.294;-3.754;2024-02-26T01:19:16;93040.38;;;11.15;100.00
19783;BME280;10051;40.294;-3.754;2024-02-26T01:21:42;93071.63;;;11.43;100.00
19783;BME280;10051;40.294;-3.754;2024-02-26T01:24:07;93067.59;;;11.37;100.00
19783;BME280;10051;40.294;-3.754;2024-02-26T01:26:33;93073.78;;;11.41;100.00
19783;BME280;10051;40.294;-3.754;2024-02-26T01:28:59;93020.06;;;11.15;100.00
19783;BME280;10051;40.294;-3.754;2024-02-26T01:31:24;93052.13;;;11.44;100.00
19783;BME280;10051;40.294;-3.754;2024-02-26T01:33:50;93007.25;;;11.14;100.00
19783;BME280;10051;40.294;-3.754;2024-02-26T01:36:15;93060.16;;;11.39;100.00
19783;BME280;10051;40.294;-3.754;2024-02-26T01:38:41;93064.50;;;11.35;100.00
19783;BME280;10051;40.294;-3.754;2024-02-26T01:41:06;92960.03;;;10.65;100.00
19783;BME280;10051;40.294;-3.754;2024-02-26T01:43:32;93059.09;;;11.31;100.00
19783;BME280;10051;40.294;-3.754;2024-02-26T01:45:58;93058.00;;;11.23;100.00
19783;BME280;10051;40.294;-3.754;2024-02-26T01:48:24;92985.56;;;10.82;100.00
19783;BME280;10051;40.294;-3.754;2024-02-26T01:50:51;93054.75;;;11.26;98.39
19783;BME280;10051;40.294;-3.754;2024-02-26T01:53:17;92976.75;;;10.78;93.91
19783;BME280;10051;40.294;-3.754;2024-02-26T01:55:44;92985.25;;;10.92;89.25
19783;BME280;10051;40.294;-3.754;2024-02-26T01:58:10;92944.72;;;10.58;85.09
19783;BME280;10051;40.294;-3.754;2024-02-26T02:00:36;93056.75;;;11.29;84.57
19783;BME280;10051;40.294;-3.754;2024-02-26T02:03:03;93030.00;;;11.01;82.40
19783;BME280;10051;40.294;-3.754;2024-02-26T02:05:30;93053.38;;;11.20;79.51
19783;BME280;10051;40.294;-3.754;2024-02-26T02:07:57;92987.75;;;10.80;77.08
19783;BME280;10051;40.294;-3.754;2024-02-26T02:10:23;92945.19;;;10.51;76.63
19783;BME280;10051;40.294;-3.754;2024-02-26T02:12:51;93031.25;;;11.21;76.54
19783;BME280;10051;40.294;-3.754;2024-02-26T02:15:17;92982.63;;;10.83;76.55
19783;BME280;10051;40.294;-3.754;2024-02-26T02:17:42;93017.16;;;11.17;75.55
19783;BME280;10051;40.294;-3.754;2024-02-26T02:20:17;92987.41;;;10.90;74.98
19783;BME280;10051;40.294;-3.754;2024-02-26T02:22:46;93017.75;;;10.96;75.79
19783;BME280;10051;40.294;-3.754;2024-02-26T02:25:12;93033.69;;;11.09;75.72
19783;BME280;10051;40.294;-3.754;2024-02-26T02:27:38;93001.50;;;10.94;75.44
19783;BME280;10051;40.294;-3.754;2024-02-26T02:30:05;93011.41;;;10.97;75.04
19783;BME280;10051;40.294;-3.754;2024-02-26T02:32:31;93007.06;;;10.84;74.71
19783;BME280;10051;40.294;-3.754;2024-02-26T02:34:58;92920.25;;;10.31;74.77
19783;BME280;10051;40.294;-3.754;2024-02-26T02:37:23;93013.75;;;10.99;75.04
19783;BME280;10051;40.294;-3.754;2024-02-26T02:39:49;92969.16;;;10.67;75.67
19783;BME280;10051;40.294;-3.754;2024-02-26T02:42:15;92952.91;;;10.56;75.94
19783;BME280;10051;40.294;-3.754;2024-02-26T02:44:40;93014.97;;;11.01;75.36
19783;BME280;10051;40.294;-3.754;2024-02-26T02:47:06;92993.16;;;11.01;74.83
19783;BME280;10051;40.294;-3.754;2024-02-26T02:49:31;92969.78;;;10.99;74.80
19783;BME280;10051;40.294;-3.754;2024-02-26T02:51:57;92929.59;;;10.73;73.16
19783;BME280;10051;40.294;-3.754;2024-02-26T02:54:23;92949.38;;;10.79;72.79
19783;BME280;10051;40.294;-3.754;2024-02-26T02:56:48;92913.00;;;10.46;71.87
19783;BME280;10051;40.294;-3.754;2024-02-26T02:59:14;92985.88;;;10.89;72.16
19783;BME280;10051;40.294;-3.754;2024-02-26T03:01:39;92995.63;;;10.97;72.29
19783;BME280;10051;40.294;-3.754;2024-02-26T03:04:05;92994.06;;;10.96;71.79
19783;BME280;10051;40.294;-3.754;2024-02-26T03:06:31;92915.63;;;10.46;72.15
19783;BME280;10051;40.294;-3.754;2024-02-26T03:08:56;92911.31;;;10.50;72.13
19783;BME280;10051;40.294;-3.754;2024-02-26T03:11:22;92954.31;;;10.89;71.10
19783;BME280;10051;40.294;-3.754;2024-02-26T03:13:47;92938.41;;;10.77;71.00
19783;BME280;10051;40.294;-3.754;2024-02-26T03:16:13;92950.13;;;10.88;71.00
19783;BME280;10051;40.294;-3.754;2024-02-26T03:18:39;92920.47;;;10.79;70.21
19783;BME280;10051;40.294;-3.754;2024-02-26T03:21:06;92869.25;;;10.50;70.23
19783;BME280;10051;40.294;-3.754;2024-02-26T03:23:31;92898.81;;;10.64;69.91
19783;BME280;10051;40.294;-3.754;2024-02-26T03:26:02;92920.94;;;10.81;70.11
19783;BME280;10051;40.294;-3.754;2024-02-26T03:28:27;92860.44;;;10.46;69.68
19783;BME280;10051;40.294;-3.754;2024-02-26T03:30:53;92913.66;;;10.78;69.54
19783;BME280;10051;40.294;-3.754;2024-02-26T03:33:18;92848.72;;;10.43;68.66
19783;BME280;10051;40.294;-3.754;2024-02-26T03:35:44;92920.47;;;10.88;69.18
19783;BME280;10051;40.294;-3.754;2024-02-26T03:38:09;92808.00;;;10.05;69.10
19783;BME280;10051;40.294;-3.754;2024-02-26T03:40:35;92890.59;;;10.57;69.42
19783;BME280;10051;40.294;-3.754;2024-02-26T03:43:00;92877.47;;;10.48;69.83
19783;BME280;10051;40.294;-3.754;2024-02-26T03:45:26;92890.59;;;10.48;69.69
19783;BME280;10051;40.294;-3.754;2024-02-26T03:47:53;92940.56;;;10.83;69.45
19783;BME280;10051;40.294;-3.754;2024-02-26T03:50:19;92939.34;;;10.81;69.88
19783;BME280;10051;40.294;-3.754;2024-02-26T03:52:44;92892.31;;;10.53;70.12
19783;BME280;10051;40.294;-3.754;2024-02-26T03:55:10;92910.41;;;10.72;70.57
19783;BME280;10051;40.294;-3.754;2024-02-26T03:57:36;92920.94;;;10.81;70.81
19783;BME280;10051;40.294;-3.754;2024-02-26T04:00:02;92920.00;;;10.77;70.82
19783;BME280;10051;40.294;-3.754;2024-02-26T04:02:28;92914.56;;;10.73;71.68
19783;BME280;10051;40.294;-3.754;2024-02-26T04:04:53;92885.22;;;10.53;71.81
19783;BME280;10051;40.294;-3.754;2024-02-26T04:07:19;92848.22;;;10.32;72.50
19783;BME280;10051;40.294;-3.754;2024-02-26T04:09:44;92911.78;;;10.78;72.61
19783;BME280;10051;40.294;-3.754;2024-02-26T04:12:10;92899.75;;;10.68;72.86
19783;BME280;10051;40.294;-3.754;2024-02-26T04:14:36;92902.81;;;10.62;73.27
19783;BME280;10051;40.294;-3.754;2024-02-26T04:17:02;92882.25;;;10.46;73.52
19783;BME280;10051;40.294;-3.754;2024-02-26T04:19:28;92890.44;;;10.45;73.85
19783;BME280;10051;40.294;-3.754;2024-02-26T04:21:54;92831.50;;;10.10;73.89
19783;BME280;10051;40.294;-3.754;2024-02-26T04:24:20;92903.88;;;10.61;74.42
19783;BME280;10051;40.294;-3.754;2024-02-26T04:26:45;92879.94;;;10.45;75.20
19783;BME280;10051;40.294;-3.754;2024-02-26T04:29:11;92923.69;;;10.58;74.88
19783;BME280;10051;40.294;-3.754;2024-02-26T04:31:37;92827.00;;;9.93;75.54
19783;BME280;10051;40.294;-3.754;2024-02-26T04:34:04;92908.06;;;10.53;75.24
19783;BME280;10051;40.294;-3.754;2024-02-26T04:36:29;92900.03;;;10.49;75.49
19783;BME280;10051;40.294;-3.754;2024-02-26T04:38:55;92908.53;;;10.55;74.94
19783;BME280;10051;40.294;-3.754;2024-02-26T04:41:21;92857.63;;;10.24;75.21
19783;BME280;10051;40.294;-3.754;2024-02-26T04:43:46;92880.84;;;10.40;75.47
19783;BME280;10051;40.294;-3.754;2024-02-26T04:46:12;92913.19;;;10.58;75.43
19783;BME280;10051;40.294;-3.754;2024-02-26T04:48:38;92876.19;;;10.28;75.26
19783;BME280;10051;40.294;-3.754;2024-02-26T04:51:04;92931.72;;;10.53;76.15
19783;BME280;10051;40.294;-3.754;2024-02-26T04:53:30;92896.75;;;10.26;76.20
19783;BME280;10051;40.294;-3.754;2024-02-26T04:55:55;92934.81;;;10.55;75.90
19783;BME280;10051;40.294;-3.754;2024-02-26T04:58:21;92890.53;;;10.22;75.50
19783;BME280;10051;40.294;-3.754;2024-02-26T05:00:46;92888.53;;;10.19;75.94
19783;BME280;10051;40.294;-3.754;2024-02-26T05:03:12;92931.56;;;10.49;76.39
19783;BME280;10051;40.294;-3.754;2024-02-26T05:05:42;92892.09;;;10.14;76.87
19783;BME280;10051;40.294;-3.754;2024-02-26T05:08:08;92938.84;;;10.52;77.17
19783;BME280;10051;40.294;-3.754;2024-02-26T05:10:34;92943.47;;;10.47;77.96
19783;BME280;10051;40.294;-3.754;2024-02-26T05:13:04;92938.50;;;10.36;78.44
19783;BME280;10051;40.294;-3.754;2024-02-26T05:15:30;92926.72;;;10.25;79.08
19783;BME280;10051;40.294;-3.754;2024-02-26T05:17:55;92956.88;;;10.36;80.10
19783;BME280;10051;40.294;-3.754;2024-02-26T05:20:21;92943.09;;;10.31;79.94
19783;BME280;10051;40.294;-3.754;2024-02-26T05:22:46;92960.72;;;10.30;82.30
19783;BME280;10051;40.294;-3.754;2024-02-26T05:25:15;92961.34;;;10.27;84.77
19783;BME280;10051;40.294;-3.754;2024-02-26T05:27:41;92911.78;;;9.94;88.33
19783;BME280;10051;40.294;-3.754;2024-02-26T05:30:07;92962.22;;;10.14;91.13
19783;BME280;10051;40.294;-3.754;2024-02-26T05:32:33;92964.56;;;10.15;94.97
19783;BME280;10051;40.294;-3.754;2024-02-26T05:34:58;92939.41;;;9.82;99.03
19783;BME280;10051;40.294;-3.754;2024-02-26T05:37:24;92967.09;;;9.97;100.00
19783;BME280;10051;40.294;-3.754;2024-02-26T05:39:49;92934.56;;;9.67;100.00
19783;BME280;10051;40.294;-3.754;2024-02-26T05:42:15;92941.34;;;9.68;100.00
19783;BME280;10051;40.294;-3.754;2024-02-26T05:44:41;92977.84;;;9.78;100.00
19783;BME280;10051;40.294;-3.754;2024-02-26T05:47:06;92966.13;;;9.85;100.00
19783;BME280;10051;40.294;-3.754;2024-02-26T05:49:32;92925.84;;;9.58;100.00
19783;BME280;10051;40.294;-3.754;2024-02-26T05:51:58;92907.97;;;9.60;100.00
19783;BME280;10051;40.294;-3.754;2024-02-26T05:54:24;92936.69;;;9.65;100.00
19783;BME280;10051;40.294;-3.754;2024-02-26T05:56:50;92930.63;;;9.56;100.00
19783;BME280;10051;40.294;-3.754;2024-02-26T05:59:15;92984.28;;;9.72;100.00
19783;BME280;10051;40.294;-3.754;2024-02-26T06:01:41;92923.44;;;9.38;100.00
19783;BME280;10051;40.294;-3.754;2024-02-26T06:04:06;92938.59;;;9.42;100.00
19783;BME280;10051;40.294;-3.754;2024-02-26T06:06:32;92980.84;;;9.63;100.00
19783;BME280;10051;40.294;-3.754;2024-02-26T06:08:58;92894.25;;;9.00;100.00
19783;BME280;10051;40.294;-3.754;2024-02-26T06:11:23;92969.91;;;9.38;100.00
19783;BME280;10051;40.294;-3.754;2024-02-26T06:13:49;92920.19;;;9.10;100.00
19783;BME280;10051;40.294;-3.754;2024-02-26T06:16:15;92935.22;;;9.18;100.00
19783;BME280;10051;40.294;-3.754;2024-02-26T06:18:41;92911.00;;;9.21;100.00
19783;BME280;10051;40.294;-3.754;2024-02-26T06:21:09;92868.53;;;8.88;100.00
19783;BME280;10051;40.294;-3.754;2024-02-26T06:23:36;92884.28;;;9.11;100.00
19783;BME280;10051;40.294;-3.754;2024-02-26T06:26:01;92942.28;;;9.41;100.00
19783;BME280;10051;40.294;-3.754;2024-02-26T06:28:27;92935.31;;;9.36;100.00
19783;BME280;10051;40.294;-3.754;2024-02-26T06:30:55;92943.84;;;9.42;100.00
19783;BME280;10051;40.294;-3.754;2024-02-26T06:33:21;92978.34;;;9.58;100.00
19783;BME280;10051;40.294;-3.754;2024-02-26T06:35:47;92940.81;;;9.26;100.00
19783;BME280;10051;40.294;-3.754;2024-02-26T06:38:12;92916.94;;;9.04;100.00
19783;BME280;10051;40.294;-3.754;2024-02-26T06:40:39;92984.22;;;9.32;100.00
19783;BME280;10051;40.294;-3.754;2024-02-26T06:43:05;92986.59;;;9.42;100.00
19783;BME280;10051;40.294;-3.754;2024-02-26T06:45:31;92954.66;;;9.17;100.00
19783;BME280;10051;40.294;-3.754;2024-02-26T06:47:57;92989.41;;;9.23;100.00
19783;BME280;10051;40.294;-3.754;2024-02-26T06:50:22;93016.09;;;9.48;100.00
19783;BME280;10051;40.294;-3.754;2024-02-26T06:52:49;93017.13;;;9.38;100.00
19783;BME280;10051;40.294;-3.754;2024-02-26T06:55:14;92964.66;;;8.92;100.00
19783;BME280;10051;40.294;-3.754;2024-02-26T06:57:40;93006.81;;;9.19;100.00
19783;BME280;10051;40.294;-3.754;2024-02-26T07:00:05;92908.00;;;8.46;100.00
19783;BME280;10051;40.294;-3.754;2024-02-26T07:02:31;93029.94;;;9.40;100.00
19783;BME280;10051;40.294;-3.754;2024-02-26T07:04:57;92991.72;;;9.25;100.00
19783;BME280;10051;40.294;-3.754;2024-02-26T07:07:24;93012.47;;;9.35;100.00
19783;BME280;10051;40.294;-3.754;2024-02-26T07:09:50;93030.25;;;9.38;100.00
19783;BME280;10051;40.294;-3.754;2024-02-26T07:12:15;93036.94;;;9.44;100.00
19783;BME280;10051;40.294;-3.754;2024-02-26T07:14:46;93026.59;;;9.48;100.00
19783;BME280;10051;40.294;-3.754;2024-02-26T07:17:11;93029.34;;;9.43;100.00
19783;BME280;10051;40.294;-3.754;2024-02-26T07:19:37;92989.44;;;9.09;100.00
19783;BME280;10051;40.294;-3.754;2024-02-26T07:22:03;93000.13;;;9.13;100.00
19783;BME280;10051;40.294;-3.754;2024-02-26T07:24:28;93026.47;;;9.30;100.00
19783;BME280;10051;40.294;-3.754;2024-02-26T07:26:54;92976.69;;;8.93;100.00
19783;BME280;10051;40.294;-3.754;2024-02-26T07:29:22;93018.31;;;9.32;100.00
19783;BME280;10051;40.294;-3.754;2024-02-26T07:31:48;92994.34;;;9.02;100.00
19783;BME280;10051;40.294;-3.754;2024-02-26T07:34:13;93025.34;;;9.22;100.00
19783;BME280;10051;40.294;-3.754;2024-02-26T07:36:39;93028.44;;;9.25;100.00
19783;BME280;10051;40.294;-3.754;2024-02-26T07:39:05;92967.09;;;8.89;100.00
19783;BME280;10051;40.294;-3.754;2024-02-26T07:41:31;92989.66;;;9.13;100.00
19783;BME280;10051;40.294;-3.754;2024-02-26T07:43:56;93019.34;;;9.22;100.00
19783;BME280;10051;40.294;-3.754;2024-02-26T07:46:22;93009.84;;;9.12;100.00
19783;BME280;10051;40.294;-3.754;2024-02-26T07:48:47;93026.72;;;9.20;100.00
19783;BME280;10051;40.294;-3.754;2024-02-26T07:51:13;93026.31;;;9.27;100.00
19783;BME280;10051;40.294;-3.754;2024-02-26T07:53:40;93018.91;;;9.29;100.00
19783;BME280;10051;40.294;-3.754;2024-02-26T07:56:05;93002.34;;;9.19;100.00
19783;BME280;10051;40.294;-3.754;2024-02-26T07:58:32;92977.66;;;8.98;97.61
19783;BME280;10051;40.294;-3.754;2024-02-26T08:00:58;93020.09;;;9.22;95.83
19783;BME280;10051;40.294;-3.754;2024-02-26T08:03:24;92964.47;;;8.89;94.15
19783;BME280;10051;40.294;-3.754;2024-02-26T08:05:51;92996.59;;;9.17;93.14
19783;BME280;10051;40.294;-3.754;2024-02-26T08:08:16;92918.88;;;8.76;91.13
19783;BME280;10051;40.294;-3.754;2024-02-26T08:10:42;93001.88;;;9.40;89.86
19783;BME280;10051;40.294;-3.754;2024-02-26T08:13:07;93010.78;;;9.62;88.25
19783;BME280;10051;40.294;-3.754;2024-02-26T08:15:34;93047.53;;;9.85;87.21
19783;BME280;10051;40.294;-3.754;2024-02-26T08:18:00;93049.53;;;9.88;86.51
19783;BME280;10051;40.294;-3.754;2024-02-26T08:20:29;93017.00;;;9.66;85.30
19783;BME280;10051;40.294;-3.754;2024-02-26T08:22:55;93054.28;;;10.08;84.70
19783;BME280;10051;40.294;-3.754;2024-02-26T08:25:20;93021.34;;;10.02;83.00
19783;BME280;10051;40.294;-3.754;2024-02-26T08:27:46;92994.59;;;10.00;80.88
19783;BME280;10051;40.294;-3.754;2024-02-26T08:30:13;93061.25;;;10.45;80.04
19783;BME280;10051;40.294;-3.754;2024-02-26T08:32:42;93028.84;;;10.26;79.08
19783;BME280;10051;40.294;-3.754;2024-02-26T08:35:08;93063.47;;;10.60;78.71
19783;BME280;10051;40.294;-3.754;2024-02-26T08:37:33;93041.69;;;10.60;77.82
19783;BME280;10051;40.294;-3.754;2024-02-26T08:39:59;93042.91;;;10.71;77.60
19783;BME280;10051;40.294;-3.754;2024-02-26T08:42:24;93017.41;;;10.71;75.86
19783;BME280;10051;40.294;-3.754;2024-02-26T08:44:50;92992.19;;;10.62;74.81
19783;BME280;10051;40.294;-3.754;2024-02-26T08:47:15;93056.13;;;11.06;74.36
19783;BME280;10051;40.294;-3.754;2024-02-26T08:49:45;93042.53;;;11.13;73.07
19783;BME280;10051;40.294;-3.754;2024-02-26T08:52:11;93017.91;;;11.09;71.81
19783;BME280;10051;40.294;-3.754;2024-02-26T08:54:36;92969.34;;;10.89;70.88
19783;BME280;10051;40.294;-3.754;2024-02-26T08:57:02;93027.53;;;11.31;69.73
19783;BME280;10051;40.294;-3.754;2024-02-26T08:59:28;93024.41;;;11.38;69.91
19783;BME280;10051;40.294;-3.754;2024-02-26T09:01:54;93059.25;;;11.70;69.48
19783;BME280;10051;40.294;-3.754;2024-02-26T09:04:19;93086.91;;;11.94;69.79
19783;BME280;10051;40.294;-3.754;2024-02-26T09:06:45;93091.56;;;12.05;69.44
19783;BME280;10051;40.294;-3.754;2024-02-26T09:09:10;93101.66;;;12.12;69.30
19783;BME280;10051;40.294;-3.754;2024-02-26T09:11:36;93105.00;;;12.22;67.75
19783;BME280;10051;40.294;-3.754;2024-02-26T09:14:02;93118.94;;;12.31;66.83
19783;BME280;10051;40.294;-3.754;2024-02-26T09:16:29;93081.78;;;12.15;66.07
19783;BME280;10051;40.294;-3.754;2024-02-26T09:18:55;93102.94;;;12.45;65.99
19783;BME280;10051;40.294;-3.754;2024-02-26T09:21:20;93078.81;;;12.25;64.85
19783;BME280;10051;40.294;-3.754;2024-02-26T09:23:49;93049.13;;;11.89;64.09
19783;BME280;10051;40.294;-3.754;2024-02-26T09:26:18;93097.94;;;12.04;63.82
19783;BME280;10051;40.294;-3.754;2024-02-26T09:28:45;93122.56;;;12.09;63.51
19783;BME280;10051;40.294;-3.754;2024-02-26T09:31:11;93091.91;;;11.78;63.38
19783;BME280;10051;40.294;-3.754;2024-02-26T09:33:36;93121.81;;;12.08;63.15
19783;BME280;10051;40.294;-3.754;2024-02-26T09:36:04;93073.28;;;11.92;63.01
19783;BME280;10051;40.294;-3.754;2024-02-26T09:38:31;93115.22;;;12.32;61.75
19783;BME280;10051;40.294;-3.754;2024-02-26T09:41:02;93118.47;;;12.38;61.40
19783;BME280;10051;40.294;-3.754;2024-02-26T09:43:35;93110.41;;;12.34;61.52
19783;BME280;10051;40.294;-3.754;2024-02-26T09:46:01;93094.63;;;12.25;61.02
19783;BME280;10051;40.294;-3.754;2024-02-26T09:48:29;93116.88;;;12.54;60.63
19783;BME280;10051;40.294;-3.754;2024-02-26T09:50:55;93071.47;;;12.40;60.52
19783;BME280;10051;40.294;-3.754;2024-02-26T09:53:21;93117.69;;;12.85;59.43
19783;BME280;10051;40.294;-3.754;2024-02-26T09:55:47;93108.22;;;12.84;58.84
19783;BME280;10051;40.294;-3.754;2024-02-26T09:58:13;93074.63;;;12.63;57.89
19783;BME280;10051;40.294;-3.754;2024-02-26T10:00:46;93049.97;;;12.59;57.83
19783;BME280;10051;40.294;-3.754;2024-02-26T10:03:13;93103.28;;;13.03;55.38
19783;BME280;10051;40.294;-3.754;2024-02-26T10:05:41;93132.50;;;13.28;55.09
19783;BME280;10051;40.294;-3.754;2024-02-26T10:08:09;93090.88;;;13.04;54.10
19783;BME280;10051;40.294;-3.754;2024-02-26T10:10:36;93142.09;;;13.33;54.30
19783;BME280;10051;40.294;-3.754;2024-02-26T10:13:04;93138.34;;;13.43;54.46
19783;BME280;10051;40.294;-3.754;2024-02-26T10:15:38;93127.94;;;13.37;54.20
19783;BME280;10051;40.294;-3.754;2024-02-26T10:18:05;93095.34;;;13.33;54.28
19783;BME280;10051;40.294;-3.754;2024-02-26T10:20:31;93099.44;;;13.52;53.97
19783;BME280;10051;40.294;-3.754;2024-02-26T10:22:57;93088.94;;;13.43;52.39
19783;BME280;10051;40.294;-3.754;2024-02-26T10:25:23;93136.09;;;13.75;52.21
19783;BME280;10051;40.294;-3.754;2024-02-26T10:27:49;93066.78;;;13.35;51.34
19783;BME280;10051;40.294;-3.754;2024-02-26T10:30:21;93040.41;;;13.27;51.07
19783;BME280;10051;40.294;-3.754;2024-02-26T10:32:51;93112.56;;;13.82;49.44
19783;BME280;10051;40.294;-3.754;2024-02-26T10:35:17;93107.28;;;13.82;48.97
19783;BME280;10051;40.294;-3.754;2024-02-26T10:37:46;93070.13;;;13.66;49.52
19783;BME280;10051;40.294;-3.754;2024-02-26T10:40:13;93066.72;;;13.65;48.49
19783;BME280;10051;40.294;-3.754;2024-02-26T10:42:39;93102.03;;;13.94;48.77
19783;BME280;10051;40.294;-3.754;2024-02-26T10:45:09;93115.75;;;14.09;48.58
19783;BME280;10051;40.294;-3.754;2024-02-26T10:47:35;93042.13;;;13.52;48.80
19783;BME280;10051;40.294;-3.754;2024-02-26T10:50:02;93115.34;;;14.19;48.60
19783;BME280;10051;40.294;-3.754;2024-02-26T10:52:31;93120.63;;;14.19;48.14
19783;BME280;10051;40.294;-3.754;2024-02-26T10:55:00;93046.31;;;13.53;49.16
19783;BME280;10051;40.294;-3.754;2024-02-26T10:57:29;93123.50;;;13.93;48.05
19783;BME280;10051;40.294;-3.754;2024-02-26T10:59:57;93085.00;;;13.71;48.69
19783;BME280;10051;40.294;-3.754;2024-02-26T11:02:24;93111.03;;;13.81;48.23
19783;BME280;10051;40.294;-3.754;2024-02-26T11:04:50;93086.56;;;13.50;47.71
19783;BME280;10051;40.294;-3.754;2024-02-26T11:07:16;93034.63;;;12.91;47.83
19783;BME280;10051;40.294;-3.754;2024-02-26T11:09:44;93122.16;;;13.44;47.70
19783;BME280;10051;40.294;-3.754;2024-02-26T11:12:13;93128.16;;;13.53;47.33
19783;BME280;10051;40.294;-3.754;2024-02-26T11:14:44;93140.53;;;13.62;46.06
19783;BME280;10051;40.294;-3.754;2024-02-26T11:17:11;93100.81;;;13.28;46.11
19783;BME280;10051;40.294;-3.754;2024-02-26T11:19:38;93151.34;;;13.48;45.98
19783;BME280;10051;40.294;-3.754;2024-02-26T11:22:07;93157.72;;;13.47;47.21
19783;BME280;10051;40.294;-3.754;2024-02-26T11:24:32;93111.44;;;13.19;46.08
19783;BME280;10051;40.294;-3.754;2024-02-26T11:27:01;93137.78;;;13.28;46.96
19783;BME280;10051;40.294;-3.754;2024-02-26T11:29:34;93054.16;;;12.69;47.20
19783;BME280;10051;40.294;-3.754;2024-02-26T11:32:03;93157.63;;;13.34;46.98
19783;BME280;10051;40.294;-3.754;2024-02-26T11:34:29;93091.13;;;12.81;46.74
19783;BME280;10051;40.294;-3.754;2024-02-26T11:36:55;93107.53;;;12.96;46.97
19783;BME280;10051;40.294;-3.754;2024-02-26T11:39:22;93143.69;;;13.25;46.69
19783;BME280;10051;40.294;-3.754;2024-02-26T11:41:47;93137.84;;;13.19;45.68
19783;BME280;10051;40.294;-3.754;2024-02-26T11:44:13;93117.13;;;13.00;44.90
19783;BME280;10051;40.294;-3.754;2024-02-26T11:46:40;93143.97;;;13.02;45.54
19783;BME280;10051;40.294;-3.754;2024-02-26T11:51:57;93099.28;;;12.67;45.96
19783;BME280;10051;40.294;-3.754;2024-02-26T11:54:51;93093.38;;;12.70;46.12
19783;BME280;10051;40.294;-3.754;2024-02-26T11:57:38;93138.81;;;13.36;46.56
19783;BME280;10051;40.294;-3.754;2024-02-26T12:02:39;93139.00;;;13.82;43.06
19783;BME280;10051;40.294;-3.754;2024-02-26T12:05:25;93139.81;;;13.95;42.49
19783;BME280;10051;40.294;-3.754;2024-02-26T12:07:55;93122.97;;;14.00;41.54
19783;BME280;10051;40.294;-3.754;2024-02-26T12:10:27;93136.94;;;14.21;42.85
19783;BME280;10051;40.294;-3.754;2024-02-26T12:12:58;93105.66;;;14.23;41.08
19783;BME280;10051;40.294;-3.754;2024-02-26T12:15:30;93114.28;;;14.45;40.76
19783;BME280;10051;40.294;-3.754;2024-02-26T12:17:56;93067.09;;;14.22;40.26
19783;BME280;10051;40.294;-3.754;2024-02-26T12:20:22;93107.59;;;14.48;39.81
19783;BME280;10051;40.294;-3.754;2024-02-26T12:22:49;93135.53;;;14.70;39.44
19783;BME280;10051;40.294;-3.754;2024-02-26T12:25:20;93121.19;;;14.71;39.08
19783;BME280;10051;40.294;-3.754;2024-02-26T12:27:46;93100.88;;;14.63;39.14
19783;BME280;10051;40.294;-3.754;2024-02-26T12:30:12;93092.81;;;14.59;39.08
19783;BME280;10051;40.294;-3.754;2024-02-26T12:32:37;93130.47;;;14.90;39.09
19783;BME280;10051;40.294;-3.754;2024-02-26T12:35:05;93076.84;;;14.68;39.50
19783;BME280;10051;40.294;-3.754;2024-02-26T12:37:32;93122.09;;;14.75;38.80
19783;BME280;10051;40.294;-3.754;2024-02-26T12:39:57;93052.88;;;14.27;37.71
19783;BME280;10051;40.294;-3.754;2024-02-26T12:42:23;93091.59;;;14.44;38.08
19783;BME280;10051;40.294;-3.754;2024-02-26T12:44:49;93123.19;;;14.74;38.92
19783;BME280;10051;40.294;-3.754;2024-02-26T12:47:15;93068.69;;;14.61;39.17
19783;BME280;10051;40.294;-3.754;2024-02-26T12:49:42;93055.38;;;14.57;39.12